sensor_id;sensor_type;location;lat;lon;timestamp;temperature;humidity
24518;DHT22;12678;51.336;12.406;2023-02-21T00:00:58;10.40;99.90
24518;DHT22;12678;51.336;12.406;2023-02-21T00:03:42;10.40;99.90
24518;DHT22;12678;51.336;12.406;2023-02-21T00:06:26;10.40;99.90
24518;DHT22;12678;51.336;12.406;2023-02-21T00:09:10;10.40;99.90
24518;DHT22;12678;51.336;12.406;2023-02-21T00:11:54;10.40;99.90
24518;DHT22;12678;51.336;12.406;2023-02-21T00:14:38;10.40;99.90
24518;DHT22;12678;51.336;12.406;2023-02-21T00:17:23;10.40;99.90
24518;DHT22;12678;51.336;12.406;2023-02-21T00:20:07;10.40;99.90
24518;DHT22;12678;51.336;12.406;2023-02-21T00:22:51;10.40;99.90
24518;DHT22;12678;51.336;12.406;2023-02-21T00:25:35;10.40;99.90
24518;DHT22;12678;51.336;12.406;2023-02-21T00:28:20;10.40;99.90
24518;DHT22;12678;51.336;12.406;2023-02-21T00:31:04;10.40;99.90
24518;DHT22;12678;51.336;12.406;2023-02-21T00:33:48;10.40;99.90
24518;DHT22;12678;51.336;12.406;2023-02-21T00:36:32;10.40;99.90
24518;DHT22;12678;51.336;12.406;2023-02-21T00:39:17;10.40;99.90
24518;DHT22;12678;51.336;12.406;2023-02-21T00:42:02;10.40;99.90
24518;DHT22;12678;51.336;12.406;2023-02-21T00:44:46;10.40;99.90
24518;DHT22;12678;51.336;12.406;2023-02-21T00:47:30;10.30;99.90
24518;DHT22;12678;51.336;12.406;2023-02-21T00:50:14;10.30;99.90
24518;DHT22;12678;51.336;12.406;2023-02-21T00:52:58;10.30;99.90
24518;DHT22;12678;51.336;12.406;2023-02-21T00:55:42;10.40;99.90
24518;DHT22;12678;51.336;12.406;2023-02-21T00:58:26;10.40;99.90
24518;DHT22;12678;51.336;12.406;2023-02-21T01:01:10;10.40;99.90
24518;DHT22;12678;51.336;12.406;2023-02-21T01:03:57;10.40;99.90
24518;DHT22;12678;51.336;12.406;2023-02-21T01:06:41;10.40;99.90
24518;DHT22;12678;51.336;12.406;2023-02-21T01:09:26;10.40;99.90
24518;DHT22;12678;51.336;12.406;2023-02-21T01:12:10;10.40;99.90
24518;DHT22;12678;51.336;12.406;2023-02-21T01:14:55;10.40;99.90
24518;DHT22;12678;51.336;12.406;2023-02-21T01:17:40;10.40;99.90
24518;DHT22;12678;51.336;12.406;2023-02-21T01:20:24;10.40;99.90
24518;DHT22;12678;51.336;12.406;2023-02-21T01:23:08;10.50;99.90
24518;DHT22;12678;51.336;12.406;2023-02-21T01:25:52;10.40;99.90
24518;DHT22;12678;51.336;12.406;2023-02-21T01:28:36;10.40;99.90
24518;DHT22;12678;51.336;12.406;2023-02-21T01:31:21;10.40;99.90
24518;DHT22;12678;51.336;12.406;2023-02-21T01:34:05;10.40;99.90
24518;DHT22;12678;51.336;12.406;2023-02-21T01:36:50;10.40;99.90
24518;DHT22;12678;51.336;12.406;2023-02-21T01:39:34;10.40;99.90
24518;DHT22;12678;51.336;12.406;2023-02-21T01:42:18;10.40;99.90
24518;DHT22;12678;51.336;12.406;2023-02-21T01:48:11;10.40;99.90
24518;DHT22;12678;51.336;12.406;2023-02-21T01:50:57;10.50;99.90
24518;DHT22;12678;51.336;12.406;2023-02-21T01:53:42;10.50;99.90
24518;DHT22;12678;51.336;12.406;2023-02-21T01:56:28;10.40;99.90
24518;DHT22;12678;51.336;12.406;2023-02-21T01:59:13;10.40;99.90
24518;DHT22;12678;51.336;12.406;2023-02-21T02:04:59;10.50;99.90
24518;DHT22;12678;51.336;12.406;2023-02-21T02:07:43;10.50;99.90
24518;DHT22;12678;51.336;12.406;2023-02-21T02:10:28;10.50;99.90
24518;DHT22;12678;51.336;12.406;2023-02-21T02:13:37;10.50;99.90
24518;DHT22;12678;51.336;12.406;2023-02-21T02:16:21;10.50;99.90
24518;DHT22;12678;51.336;12.406;2023-02-21T02:24:31;10.40;99.90
24518;DHT22;12678;51.336;12.406;2023-02-21T02:27:33;10.40;99.90
24518;DHT22;12678;51.336;12.406;2023-02-21T02:30:07;10.40;99.90
24518;DHT22;12678;51.336;12.406;2023-02-21T02:33:12;10.40;99.90
24518;DHT22;12678;51.336;12.406;2023-02-21T02:35:54;10.40;99.90
24518;DHT22;12678;51.336;12.406;2023-02-21T02:40:58;10.30;99.90
24518;DHT22;12678;51.336;12.406;2023-02-21T02:43:32;10.30;99.90
24518;DHT22;12678;51.336;12.406;2023-02-21T02:48:44;10.30;99.90
24518;DHT22;12678;51.336;12.406;2023-02-21T02:51:13;10.30;99.90
24518;DHT22;12678;51.336;12.406;2023-02-21T02:53:39;10.40;99.90
24518;DHT22;12678;51.336;12.406;2023-02-21T02:56:10;10.30;99.90
24518;DHT22;12678;51.336;12.406;2023-02-21T02:59:04;10.30;99.90
24518;DHT22;12678;51.336;12.406;2023-02-21T03:10:46;10.30;99.90
24518;DHT22;12678;51.336;12.406;2023-02-21T03:13:21;10.30;99.90
24518;DHT22;12678;51.336;12.406;2023-02-21T03:15:59;10.30;99.90
24518;DHT22;12678;51.336;12.406;2023-02-21T03:18:41;10.30;99.90
24518;DHT22;12678;51.336;12.406;2023-02-21T03:21:11;10.30;99.90
24518;DHT22;12678;51.336;12.406;2023-02-21T03:23:38;10.30;99.90
24518;DHT22;12678;51.336;12.406;2023-02-21T03:26:08;10.30;99.90
24518;DHT22;12678;51.336;12.406;2023-02-21T03:28:36;10.30;99.90
24518;DHT22;12678;51.336;12.406;2023-02-21T03:31:03;10.30;99.90
24518;DHT22;12678;51.336;12.406;2023-02-21T03:33:32;10.30;99.90
24518;DHT22;12678;51.336;12.406;2023-02-21T03:35:59;10.30;99.90
24518;DHT22;12678;51.336;12.406;2023-02-21T03:38:29;10.40;99.90
24518;DHT22;12678;51.336;12.406;2023-02-21T03:40:55;10.40;99.90
24518;DHT22;12678;51.336;12.406;2023-02-21T03:43:20;10.30;99.90
24518;DHT22;12678;51.336;12.406;2023-02-21T03:45:46;10.40;99.90
24518;DHT22;12678;51.336;12.406;2023-02-21T03:48:11;10.40;99.90
24518;DHT22;12678;51.336;12.406;2023-02-21T03:50:37;10.40;99.90
24518;DHT22;12678;51.336;12.406;2023-02-21T03:53:03;10.40;99.90
24518;DHT22;12678;51.336;12.406;2023-02-21T03:55:29;10.40;99.90
24518;DHT22;12678;51.336;12.406;2023-02-21T03:57:54;10.40;99.90
24518;DHT22;12678;51.336;12.406;2023-02-21T04:00:20;10.30;99.90
24518;DHT22;12678;51.336;12.406;2023-02-21T04:02:46;10.30;99.90
24518;DHT22;12678;51.336;12.406;2023-02-21T04:05:12;10.40;99.90
24518;DHT22;12678;51.336;12.406;2023-02-21T04:07:38;10.30;99.90
24518;DHT22;12678;51.336;12.406;2023-02-21T04:10:03;10.40;99.90
24518;DHT22;12678;51.336;12.406;2023-02-21T04:12:29;10.40;99.90
24518;DHT22;12678;51.336;12.406;2023-02-21T04:14:55;10.40;99.90
24518;DHT22;12678;51.336;12.406;2023-02-21T04:17:23;10.40;99.90
24518;DHT22;12678;51.336;12.406;2023-02-21T04:19:49;10.40;99.90
24518;DHT22;12678;51.336;12.406;2023-02-21T04:22:15;10.40;99.90
24518;DHT22;12678;51.336;12.406;2023-02-21T04:24:40;10.30;99.90
24518;DHT22;12678;51.336;12.406;2023-02-21T04:27:07;10.40;99.90
24518;DHT22;12678;51.336;12.406;2023-02-21T04:29:32;10.30;99.90
24518;DHT22;12678;51.336;12.406;2023-02-21T04:31:58;10.30;99.90
24518;DHT22;12678;51.336;12.406;2023-02-21T04:34:24;10.30;99.90
24518;DHT22;12678;51.336;12.406;2023-02-21T04:36:50;10.40;99.90
24518;DHT22;12678;51.336;12.406;2023-02-21T04:39:15;10.30;99.90
24518;DHT22;12678;51.336;12.406;2023-02-21T04:41:41;10.30;99.90
24518;DHT22;12678;51.336;12.406;2023-02-21T04:44:07;10.30;99.90
24518;DHT22;12678;51.336;12.406;2023-02-21T04:46:33;10.30;99.90
24518;DHT22;12678;51.336;12.406;2023-02-21T04:48:59;10.30;99.90
24518;DHT22;12678;51.336;12.406;2023-02-21T04:51:25;10.30;99.90
24518;DHT22;12678;51.336;12.406;2023-02-21T04:53:52;10.30;99.90
24518;DHT22;12678;51.336;12.406;2023-02-21T04:56:20;10.30;99.90
24518;DHT22;12678;51.336;12.406;2023-02-21T04:58:47;10.30;99.90
24518;DHT22;12678;51.336;12.406;2023-02-21T05:01:15;10.30;99.90
24518;DHT22;12678;51.336;12.406;2023-02-21T05:03:40;10.30;99.90
24518;DHT22;12678;51.336;12.406;2023-02-21T05:06:06;10.30;99.90
24518;DHT22;12678;51.336;12.406;2023-02-21T05:08:32;10.30;99.90
24518;DHT22;12678;51.336;12.406;2023-02-21T05:10:58;10.30;99.90
24518;DHT22;12678;51.336;12.406;2023-02-21T05:13:23;10.20;99.90
24518;DHT22;12678;51.336;12.406;2023-02-21T05:15:49;10.20;99.90
24518;DHT22;12678;51.336;12.406;2023-02-21T05:18:15;10.20;99.90
24518;DHT22;12678;51.336;12.406;2023-02-21T05:20:48;10.20;99.90
24518;DHT22;12678;51.336;12.406;2023-02-21T05:23:16;10.20;99.90
24518;DHT22;12678;51.336;12.406;2023-02-21T05:25:43;10.20;99.90
24518;DHT22;12678;51.336;12.406;2023-02-21T05:28:09;10.20;99.90
24518;DHT22;12678;51.336;12.406;2023-02-21T05:30:35;10.30;99.90
24518;DHT22;12678;51.336;12.406;2023-02-21T05:33:01;10.30;99.90
24518;DHT22;12678;51.336;12.406;2023-02-21T05:35:26;10.30;99.90
24518;DHT22;12678;51.336;12.406;2023-02-21T05:37:52;10.30;99.90
24518;DHT22;12678;51.336;12.406;2023-02-21T05:40:18;10.20;99.90
24518;DHT22;12678;51.336;12.406;2023-02-21T05:42:43;10.20;99.90
24518;DHT22;12678;51.336;12.406;2023-02-21T05:45:10;10.20;99.90
24518;DHT22;12678;51.336;12.406;2023-02-21T05:47:37;10.20;99.90
24518;DHT22;12678;51.336;12.406;2023-02-21T05:50:03;10.20;99.90
24518;DHT22;12678;51.336;12.406;2023-02-21T05:52:29;10.20;99.90
24518;DHT22;12678;51.336;12.406;2023-02-21T05:54:55;10.20;99.90
24518;DHT22;12678;51.336;12.406;2023-02-21T05:57:21;10.20;99.90
24518;DHT22;12678;51.336;12.406;2023-02-21T05:59:47;10.20;99.90
24518;DHT22;12678;51.336;12.406;2023-02-21T06:02:13;10.20;99.90
24518;DHT22;12678;51.336;12.406;2023-02-21T06:04:39;10.20;99.90
24518;DHT22;12678;51.336;12.406;2023-02-21T06:07:05;10.30;99.90
24518;DHT22;12678;51.336;12.406;2023-02-21T06:09:31;10.30;99.90
24518;DHT22;12678;51.336;12.406;2023-02-21T06:11:57;10.30;99.90
24518;DHT22;12678;51.336;12.406;2023-02-21T06:14:24;10.30;99.90
24518;DHT22;12678;51.336;12.406;2023-02-21T06:16:50;10.30;99.90
24518;DHT22;12678;51.336;12.406;2023-02-21T06:19:16;10.30;99.90
24518;DHT22;12678;51.336;12.406;2023-02-21T06:21:44;10.30;99.90
24518;DHT22;12678;51.336;12.406;2023-02-21T06:24:11;10.30;99.90
24518;DHT22;12678;51.336;12.406;2023-02-21T06:26:37;10.30;99.90
24518;DHT22;12678;51.336;12.406;2023-02-21T06:29:06;10.30;99.90
24518;DHT22;12678;51.336;12.406;2023-02-21T06:31:32;10.20;99.90
24518;DHT22;12678;51.336;12.406;2023-02-21T06:33:58;10.20;99.90
24518;DHT22;12678;51.336;12.406;2023-02-21T06:36:26;10.30;99.90
24518;DHT22;12678;51.336;12.406;2023-02-21T06:38:54;10.30;99.90
24518;DHT22;12678;51.336;12.406;2023-02-21T06:41:24;10.30;99.90
24518;DHT22;12678;51.336;12.406;2023-02-21T06:43:51;10.30;99.90
24518;DHT22;12678;51.336;12.406;2023-02-21T06:46:19;10.30;99.90
24518;DHT22;12678;51.336;12.406;2023-02-21T06:48:47;10.30;99.90
24518;DHT22;12678;51.336;12.406;2023-02-21T06:51:13;10.30;99.90
24518;DHT22;12678;51.336;12.406;2023-02-21T06:53:42;10.30;99.90
24518;DHT22;12678;51.336;12.406;2023-02-21T06:56:09;10.40;99.90
24518;DHT22;12678;51.336;12.406;2023-02-21T06:58:35;10.40;99.90
24518;DHT22;12678;51.336;12.406;2023-02-21T07:01:01;10.40;99.90
24518;DHT22;12678;51.336;12.406;2023-02-21T07:03:27;10.40;99.90
24518;DHT22;12678;51.336;12.406;2023-02-21T07:05:53;10.40;99.90
24518;DHT22;12678;51.336;12.406;2023-02-21T07:08:18;10.40;99.90
24518;DHT22;12678;51.336;12.406;2023-02-21T07:10:44;10.40;99.90
24518;DHT22;12678;51.336;12.406;2023-02-21T07:13:09;10.50;99.90
24518;DHT22;12678;51.336;12.406;2023-02-21T07:15:38;10.50;99.90
24518;DHT22;12678;51.336;12.406;2023-02-21T07:18:03;10.50;99.90
24518;DHT22;12678;51.336;12.406;2023-02-21T07:20:29;10.50;99.90
24518;DHT22;12678;51.336;12.406;2023-02-21T07:22:57;10.60;99.90
24518;DHT22;12678;51.336;12.406;2023-02-21T07:25:23;10.60;99.90
24518;DHT22;12678;51.336;12.406;2023-02-21T07:27:49;10.60;99.90
24518;DHT22;12678;51.336;12.406;2023-02-21T07:30:15;10.60;99.90
24518;DHT22;12678;51.336;12.406;2023-02-21T07:32:41;10.70;99.90
24518;DHT22;12678;51.336;12.406;2023-02-21T07:35:07;10.80;99.90
24518;DHT22;12678;51.336;12.406;2023-02-21T07:37:32;10.80;99.90
24518;DHT22;12678;51.336;12.406;2023-02-21T07:39:58;10.90;99.90
24518;DHT22;12678;51.336;12.406;2023-02-21T07:42:24;10.90;99.90
24518;DHT22;12678;51.336;12.406;2023-02-21T07:44:56;10.90;99.90
24518;DHT22;12678;51.336;12.406;2023-02-21T07:47:23;10.90;99.90
24518;DHT22;12678;51.336;12.406;2023-02-21T07:49:49;10.90;99.90
24518;DHT22;12678;51.336;12.406;2023-02-21T07:52:16;11.00;99.90
24518;DHT22;12678;51.336;12.406;2023-02-21T07:54:42;11.00;99.90
24518;DHT22;12678;51.336;12.406;2023-02-21T07:57:07;11.00;99.90
24518;DHT22;12678;51.336;12.406;2023-02-21T07:59:33;11.00;99.90
24518;DHT22;12678;51.336;12.406;2023-02-21T08:01:58;11.20;99.90
24518;DHT22;12678;51.336;12.406;2023-02-21T08:04:25;11.20;99.90
24518;DHT22;12678;51.336;12.406;2023-02-21T08:06:51;11.40;99.90
24518;DHT22;12678;51.336;12.406;2023-02-21T08:09:17;11.50;99.90
24518;DHT22;12678;51.336;12.406;2023-02-21T08:11:42;11.50;99.90
24518;DHT22;12678;51.336;12.406;2023-02-21T08:14:08;11.60;99.90
24518;DHT22;12678;51.336;12.406;2023-02-21T08:16:34;11.70;99.90
24518;DHT22;12678;51.336;12.406;2023-02-21T08:18:59;11.60;99.90
24518;DHT22;12678;51.336;12.406;2023-02-21T08:21:25;11.60;99.90
24518;DHT22;12678;51.336;12.406;2023-02-21T08:23:52;11.60;99.90
24518;DHT22;12678;51.336;12.406;2023-02-21T08:26:19;11.60;99.90
24518;DHT22;12678;51.336;12.406;2023-02-21T08:28:45;11.60;99.90
24518;DHT22;12678;51.336;12.406;2023-02-21T08:31:10;11.70;99.90
24518;DHT22;12678;51.336;12.406;2023-02-21T08:33:36;11.80;99.90
24518;DHT22;12678;51.336;12.406;2023-02-21T08:36:02;11.80;99.90
24518;DHT22;12678;51.336;12.406;2023-02-21T08:38:29;11.80;99.90
24518;DHT22;12678;51.336;12.406;2023-02-21T08:40:55;11.80;99.90
24518;DHT22;12678;51.336;12.406;2023-02-21T08:43:22;11.90;99.90
24518;DHT22;12678;51.336;12.406;2023-02-21T08:45:48;11.90;99.90
24518;DHT22;12678;51.336;12.406;2023-02-21T08:48:14;11.90;99.90
24518;DHT22;12678;51.336;12.406;2023-02-21T08:50:41;11.90;99.90
24518;DHT22;12678;51.336;12.406;2023-02-21T08:53:07;12.00;99.90
24518;DHT22;12678;51.336;12.406;2023-02-21T08:55:32;12.10;99.90
24518;DHT22;12678;51.336;12.406;2023-02-21T08:57:58;12.20;99.90
24518;DHT22;12678;51.336;12.406;2023-02-21T09:00:24;12.30;99.90
24518;DHT22;12678;51.336;12.406;2023-02-21T09:02:53;12.20;99.90
24518;DHT22;12678;51.336;12.406;2023-02-21T09:05:23;12.20;99.90
24518;DHT22;12678;51.336;12.406;2023-02-21T09:07:51;12.30;99.90
24518;DHT22;12678;51.336;12.406;2023-02-21T09:10:19;12.10;99.90
24518;DHT22;12678;51.336;12.406;2023-02-21T09:12:45;12.20;99.90
24518;DHT22;12678;51.336;12.406;2023-02-21T09:15:14;12.10;99.90
24518;DHT22;12678;51.336;12.406;2023-02-21T09:17:40;12.10;99.90
24518;DHT22;12678;51.336;12.406;2023-02-21T09:20:07;12.10;99.90
24518;DHT22;12678;51.336;12.406;2023-02-21T09:22:35;12.10;99.90
24518;DHT22;12678;51.336;12.406;2023-02-21T09:25:01;12.10;99.90
24518;DHT22;12678;51.336;12.406;2023-02-21T09:27:28;12.10;99.90
24518;DHT22;12678;51.336;12.406;2023-02-21T09:30:14;12.20;99.90
24518;DHT22;12678;51.336;12.406;2023-02-21T09:32:40;12.30;99.90
24518;DHT22;12678;51.336;12.406;2023-02-21T09:35:07;12.40;99.90
24518;DHT22;12678;51.336;12.406;2023-02-21T09:37:36;12.40;99.90
24518;DHT22;12678;51.336;12.406;2023-02-21T09:40:02;12.40;99.90
24518;DHT22;12678;51.336;12.406;2023-02-21T09:42:30;12.40;99.90
24518;DHT22;12678;51.336;12.406;2023-02-21T09:44:56;12.40;99.90
24518;DHT22;12678;51.336;12.406;2023-02-21T09:47:35;12.50;99.90
24518;DHT22;12678;51.336;12.406;2023-02-21T09:50:13;12.50;99.90
24518;DHT22;12678;51.336;12.406;2023-02-21T09:52:40;12.50;99.90
24518;DHT22;12678;51.336;12.406;2023-02-21T09:55:29;12.60;99.90
24518;DHT22;12678;51.336;12.406;2023-02-21T09:57:56;12.60;99.90
24518;DHT22;12678;51.336;12.406;2023-02-21T10:00:34;12.70;99.90
24518;DHT22;12678;51.336;12.406;2023-02-21T10:08:49;12.70;99.90
24518;DHT22;12678;51.336;12.406;2023-02-21T10:16:25;12.60;99.90
24518;DHT22;12678;51.336;12.406;2023-02-21T10:19:01;12.60;99.90
24518;DHT22;12678;51.336;12.406;2023-02-21T10:21:39;12.60;99.90
24518;DHT22;12678;51.336;12.406;2023-02-21T10:24:18;12.60;99.90
24518;DHT22;12678;51.336;12.406;2023-02-21T10:27:00;12.50;99.90
24518;DHT22;12678;51.336;12.406;2023-02-21T10:32:11;12.60;99.90
24518;DHT22;12678;51.336;12.406;2023-02-21T10:34:37;12.50;99.90
24518;DHT22;12678;51.336;12.406;2023-02-21T10:42:49;12.60;99.90
24518;DHT22;12678;51.336;12.406;2023-02-21T10:45:19;12.60;99.90
24518;DHT22;12678;51.336;12.406;2023-02-21T10:53:06;12.70;99.90
24518;DHT22;12678;51.336;12.406;2023-02-21T10:55:32;12.70;99.90
24518;DHT22;12678;51.336;12.406;2023-02-21T10:58:06;12.60;99.90
24518;DHT22;12678;51.336;12.406;2023-02-21T11:00:41;12.60;99.90
24518;DHT22;12678;51.336;12.406;2023-02-21T11:05:50;12.60;99.90
24518;DHT22;12678;51.336;12.406;2023-02-21T11:08:37;12.60;99.90
24518;DHT22;12678;51.336;12.406;2023-02-21T11:11:03;12.60;99.90
24518;DHT22;12678;51.336;12.406;2023-02-21T11:13:29;12.60;99.90
24518;DHT22;12678;51.336;12.406;2023-02-21T11:16:17;12.50;99.90
24518;DHT22;12678;51.336;12.406;2023-02-21T11:18:43;12.50;99.90
24518;DHT22;12678;51.336;12.406;2023-02-21T11:21:15;12.60;99.90
24518;DHT22;12678;51.336;12.406;2023-02-21T11:23:59;12.60;99.90
24518;DHT22;12678;51.336;12.406;2023-02-21T11:26:48;12.60;99.90
24518;DHT22;12678;51.336;12.406;2023-02-21T11:29:20;12.60;99.90
24518;DHT22;12678;51.336;12.406;2023-02-21T11:31:49;12.60;99.90
24518;DHT22;12678;51.336;12.406;2023-02-21T11:34:17;12.60;99.90
24518;DHT22;12678;51.336;12.406;2023-02-21T11:36:45;12.60;99.90
24518;DHT22;12678;51.336;12.406;2023-02-21T11:39:23;12.60;99.90
24518;DHT22;12678;51.336;12.406;2023-02-21T11:42:02;12.50;99.90
24518;DHT22;12678;51.336;12.406;2023-02-21T11:44:40;12.50;99.90
24518;DHT22;12678;51.336;12.406;2023-02-21T11:55:41;12.50;99.90
24518;DHT22;12678;51.336;12.406;2023-02-21T12:00:49;12.60;99.90
24518;DHT22;12678;51.336;12.406;2023-02-21T12:09:23;12.80;99.90
24518;DHT22;12678;51.336;12.406;2023-02-21T12:14:54;12.90;99.90
24518;DHT22;12678;51.336;12.406;2023-02-21T12:33:42;13.40;99.90
24518;DHT22;12678;51.336;12.406;2023-02-21T12:36:31;13.40;99.90
24518;DHT22;12678;51.336;12.406;2023-02-21T12:47:34;13.30;99.90
24518;DHT22;12678;51.336;12.406;2023-02-21T12:50:15;13.20;99.90
24518;DHT22;12678;51.336;12.406;2023-02-21T12:55:39;13.20;99.90
24518;DHT22;12678;51.336;12.406;2023-02-21T12:58:26;13.10;99.90
24518;DHT22;12678;51.336;12.406;2023-02-21T13:14:26;12.90;99.90
24518;DHT22;12678;51.336;12.406;2023-02-21T13:16:53;12.90;99.90
24518;DHT22;12678;51.336;12.406;2023-02-21T13:19:19;12.80;99.90
24518;DHT22;12678;51.336;12.406;2023-02-21T13:32:58;12.80;99.90
24518;DHT22;12678;51.336;12.406;2023-02-21T13:35:37;12.80;99.90
24518;DHT22;12678;51.336;12.406;2023-02-21T13:38:05;12.80;99.90
24518;DHT22;12678;51.336;12.406;2023-02-21T13:40:47;12.70;99.90
24518;DHT22;12678;51.336;12.406;2023-02-21T13:43:31;12.70;99.90
24518;DHT22;12678;51.336;12.406;2023-02-21T13:49:35;12.80;99.90
24518;DHT22;12678;51.336;12.406;2023-02-21T14:08:40;12.80;99.90
24518;DHT22;12678;51.336;12.406;2023-02-21T14:13:50;12.80;99.90
24518;DHT22;12678;51.336;12.406;2023-02-21T14:16:28;12.90;99.90
24518;DHT22;12678;51.336;12.406;2023-02-21T14:19:09;12.90;99.90
24518;DHT22;12678;51.336;12.406;2023-02-21T14:24:11;12.90;99.90
24518;DHT22;12678;51.336;12.406;2023-02-21T14:26:49;12.90;99.90
24518;DHT22;12678;51.336;12.406;2023-02-21T14:37:21;12.90;99.90
24518;DHT22;12678;51.336;12.406;2023-02-21T14:39:51;12.80;99.90
24518;DHT22;12678;51.336;12.406;2023-02-21T14:42:26;12.80;99.90
24518;DHT22;12678;51.336;12.406;2023-02-21T14:54:10;12.90;99.90
24518;DHT22;12678;51.336;12.406;2023-02-21T15:02:50;12.90;99.90
24518;DHT22;12678;51.336;12.406;2023-02-21T15:06:09;13.00;99.90
24518;DHT22;12678;51.336;12.406;2023-02-21T15:08:47;13.00;99.90
24518;DHT22;12678;51.336;12.406;2023-02-21T15:11:34;13.00;99.90
24518;DHT22;12678;51.336;12.406;2023-02-21T15:14:23;13.00;99.90
24518;DHT22;12678;51.336;12.406;2023-02-21T15:16:57;13.00;99.90
24518;DHT22;12678;51.336;12.406;2023-02-21T15:19:30;13.00;99.90
24518;DHT22;12678;51.336;12.406;2023-02-21T15:22:06;13.00;99.90
24518;DHT22;12678;51.336;12.406;2023-02-21T15:24:32;13.00;99.90
24518;DHT22;12678;51.336;12.406;2023-02-21T15:27:11;12.90;99.90
24518;DHT22;12678;51.336;12.406;2023-02-21T15:29:39;12.90;99.90
24518;DHT22;12678;51.336;12.406;2023-02-21T15:32:05;12.90;99.90
24518;DHT22;12678;51.336;12.406;2023-02-21T15:34:41;12.90;99.90
24518;DHT22;12678;51.336;12.406;2023-02-21T15:37:16;12.90;99.90
24518;DHT22;12678;51.336;12.406;2023-02-21T15:40:06;12.90;99.90
24518;DHT22;12678;51.336;12.406;2023-02-21T15:42:39;12.90;99.90
24518;DHT22;12678;51.336;12.406;2023-02-21T15:45:15;12.90;99.90
24518;DHT22;12678;51.336;12.406;2023-02-21T15:47:42;12.80;99.90
24518;DHT22;12678;51.336;12.406;2023-02-21T15:50:39;12.90;99.90
24518;DHT22;12678;51.336;12.406;2023-02-21T15:53:16;12.90;99.90
24518;DHT22;12678;51.336;12.406;2023-02-21T15:55:42;12.80;99.90
24518;DHT22;12678;51.336;12.406;2023-02-21T16:03:40;12.70;99.90
24518;DHT22;12678;51.336;12.406;2023-02-21T16:06:24;12.60;99.90
24518;DHT22;12678;51.336;12.406;2023-02-21T16:11:46;12.60;99.90
24518;DHT22;12678;51.336;12.406;2023-02-21T16:14:22;12.60;99.90
24518;DHT22;12678;51.336;12.406;2023-02-21T16:17:05;12.60;99.90
24518;DHT22;12678;51.336;12.406;2023-02-21T16:19:32;12.50;99.90
24518;DHT22;12678;51.336;12.406;2023-02-21T16:22:21;12.40;99.90
24518;DHT22;12678;51.336;12.406;2023-02-21T16:24:47;12.40;99.90
24518;DHT22;12678;51.336;12.406;2023-02-21T16:27:16;12.30;99.90
24518;DHT22;12678;51.336;12.406;2023-02-21T16:29:42;12.30;99.90
24518;DHT22;12678;51.336;12.406;2023-02-21T16:32:17;12.20;99.90
24518;DHT22;12678;51.336;12.406;2023-02-21T16:34:43;12.10;99.90
24518;DHT22;12678;51.336;12.406;2023-02-21T16:37:11;12.10;99.90
24518;DHT22;12678;51.336;12.406;2023-02-21T16:39:43;12.00;99.90
24518;DHT22;12678;51.336;12.406;2023-02-21T16:42:09;11.90;99.90
24518;DHT22;12678;51.336;12.406;2023-02-21T16:44:34;11.80;99.90
24518;DHT22;12678;51.336;12.406;2023-02-21T16:47:00;11.80;99.90
24518;DHT22;12678;51.336;12.406;2023-02-21T16:49:25;11.80;99.90
24518;DHT22;12678;51.336;12.406;2023-02-21T16:51:52;11.70;99.90
24518;DHT22;12678;51.336;12.406;2023-02-21T16:54:17;11.80;99.90
24518;DHT22;12678;51.336;12.406;2023-02-21T16:56:45;11.70;99.90
24518;DHT22;12678;51.336;12.406;2023-02-21T16:59:15;11.70;99.90
24518;DHT22;12678;51.336;12.406;2023-02-21T17:01:41;11.70;99.90
24518;DHT22;12678;51.336;12.406;2023-02-21T17:04:20;11.70;99.90
24518;DHT22;12678;51.336;12.406;2023-02-21T17:06:56;11.70;99.90
24518;DHT22;12678;51.336;12.406;2023-02-21T17:09:25;11.60;99.90
24518;DHT22;12678;51.336;12.406;2023-02-21T17:11:51;11.60;99.90
24518;DHT22;12678;51.336;12.406;2023-02-21T17:14:20;11.60;99.90
24518;DHT22;12678;51.336;12.406;2023-02-21T17:16:46;11.60;99.90
24518;DHT22;12678;51.336;12.406;2023-02-21T17:19:17;11.70;99.90
24518;DHT22;12678;51.336;12.406;2023-02-21T17:21:43;11.70;99.90
24518;DHT22;12678;51.336;12.406;2023-02-21T17:24:11;11.70;99.90
24518;DHT22;12678;51.336;12.406;2023-02-21T17:26:37;11.70;99.90
24518;DHT22;12678;51.336;12.406;2023-02-21T17:29:04;11.70;99.90
24518;DHT22;12678;51.336;12.406;2023-02-21T17:31:31;11.70;99.90
24518;DHT22;12678;51.336;12.406;2023-02-21T17:33:58;11.70;99.90
24518;DHT22;12678;51.336;12.406;2023-02-21T17:36:25;11.70;99.90
24518;DHT22;12678;51.336;12.406;2023-02-21T17:38:51;11.70;99.90
24518;DHT22;12678;51.336;12.406;2023-02-21T17:41:18;11.70;99.90
24518;DHT22;12678;51.336;12.406;2023-02-21T17:43:44;11.60;99.90
24518;DHT22;12678;51.336;12.406;2023-02-21T17:46:12;11.60;99.90
24518;DHT22;12678;51.336;12.406;2023-02-21T17:48:43;11.60;99.90
24518;DHT22;12678;51.336;12.406;2023-02-21T17:51:31;11.70;99.90
24518;DHT22;12678;51.336;12.406;2023-02-21T17:54:03;11.70;99.90
24518;DHT22;12678;51.336;12.406;2023-02-21T17:56:33;11.60;99.90
24518;DHT22;12678;51.336;12.406;2023-02-21T17:58:59;11.60;99.90
24518;DHT22;12678;51.336;12.406;2023-02-21T18:01:25;11.60;99.90
24518;DHT22;12678;51.336;12.406;2023-02-21T18:03:53;11.60;99.90
24518;DHT22;12678;51.336;12.406;2023-02-21T18:06:20;11.60;99.90
24518;DHT22;12678;51.336;12.406;2023-02-21T18:08:45;11.60;99.90
24518;DHT22;12678;51.336;12.406;2023-02-21T18:11:13;11.60;99.90
24518;DHT22;12678;51.336;12.406;2023-02-21T18:13:41;11.60;99.90
24518;DHT22;12678;51.336;12.406;2023-02-21T18:16:09;11.60;99.90
24518;DHT22;12678;51.336;12.406;2023-02-21T18:18:35;11.60;99.90
24518;DHT22;12678;51.336;12.406;2023-02-21T18:21:04;11.60;99.90
24518;DHT22;12678;51.336;12.406;2023-02-21T18:23:31;11.60;99.90
24518;DHT22;12678;51.336;12.406;2023-02-21T18:25:58;11.50;99.90
24518;DHT22;12678;51.336;12.406;2023-02-21T18:28:25;11.50;99.90
24518;DHT22;12678;51.336;12.406;2023-02-21T18:30:51;11.50;99.90
24518;DHT22;12678;51.336;12.406;2023-02-21T18:33:18;11.50;99.90
24518;DHT22;12678;51.336;12.406;2023-02-21T18:35:44;11.50;99.90
24518;DHT22;12678;51.336;12.406;2023-02-21T18:38:09;11.50;99.90
24518;DHT22;12678;51.336;12.406;2023-02-21T18:40:37;11.50;99.90
24518;DHT22;12678;51.336;12.406;2023-02-21T18:43:21;11.50;99.90
24518;DHT22;12678;51.336;12.406;2023-02-21T18:45:49;11.40;99.90